Flight Track Log - Related Links

Times and Time Zones

All times are in EDT time to prevent confusion due to time zone crossing. See the LYM1725 flight status page for this flight to view local times or setup timezone preferences in your user account.

Time Position Orientation Groundspeed Altitude Reporting Facility
EDT Latitude Longitude Course Direction KTS MPH feet Rate Location/Type
Sat 09:35:53 AM 41.3622 -105.7531 312° West 163 188 10,500  Level Denver Center
Sat 09:36:54 AM 41.4069 -105.8047 319° Northwest 189 217 12,500 1,884 Climbing Denver Center
Sat 09:37:54 AM 41.4447 -105.8564 314° West 194 223 14,300 1,587 Climbing Denver Center
Sat 09:38:55 AM 41.4797 -105.8944 321° Northwest 182 209 15,700 1,475 Climbing Denver Center
Sat 09:39:56 AM 41.5200 -105.9464 316° Northwest 180 207 17,300 1,131 Climbing Denver Center
Sat 09:40:00 AM 41.6883 -106.2574 312° West  Level FlightAware Approximate
Sat 09:40:57 AM 41.5494 -105.9983 307° West 183 211 18,000  Level Denver Center
Sat 09:41:00 AM 41.7319 -106.3227 312° West  Level FlightAware Approximate
Sat 09:41:57 AM 41.5875 -106.0594 310° West 220 253 18,000  Level Denver Center
Sat 09:42:58 AM 41.6261 -106.1467 301° West 243 280 18,000  Level Denver Center
Sat 09:43:59 AM 41.6628 -106.2231 303° West 252 290 18,000 49 Level Denver Center
Sat 09:45:00 AM 41.7125 -106.2872 316° Northwest 256 295 18,100  Climbing Denver Center
Sat 09:46:01 AM 41.7775 -106.3575 321° Northwest 273 314 18,000  Descending Denver Center
Sat 09:47:01 AM 41.8164 -106.4319 305° West 263 303 18,100 50 Climbing Denver Center
Sat 09:48:02 AM 41.8597 -106.5150 305° West 259 298 18,100 -98 Level Denver Center
Sat 09:49:03 AM 41.9042 -106.5892 309° West 262 302 17,900 -98 Descending Denver Center
Sat 09:50:04 AM 41.9497 -106.6575 312° West 259 298 17,900 49 Level Denver Center
Sat 09:51:05 AM 42.0022 -106.7408 310° West 261 300 18,000 49 Climbing Denver Center
Sat 09:52:06 AM 42.0481 -106.8097 312° West 260 299 18,000 49 Level Denver Center
Sat 09:53:07 AM 42.1006 -106.8903 311° West 259 298 18,100 49 Climbing Denver Center
Sat 09:54:08 AM 42.1444 -106.9594 311° West 256 295 18,100 -49 Level Denver Center
Sat 09:55:09 AM 42.1961 -107.0275 316° Northwest 263 303 18,000  Descending Denver Center
Sat 09:56:10 AM 42.2478 -107.1106 310° West 263 303 18,100  Climbing Denver Center
Sat 09:57:11 AM 42.2906 -107.1836 308° West 261 300 18,000 -49 Descending Denver Center
Sat 09:58:12 AM 42.3308 -107.2611 305° West 263 303 18,000  Level Denver Center
Sat 09:59:13 AM 42.3853 -107.3467 311° West 267 307 18,000  Level Denver Center
Sat 10:00:14 AM 42.4317 -107.4175 312° West 265 305 18,000  Level Denver Center
Sat 10:01:11 AM 42.4772 -107.4889 311° West 264 304 18,000  Level Salt Lake Center
Sat 10:02:12 AM 42.5281 -107.5744 309° West 263 303 18,000 -98 Level Salt Lake Center
Sat 10:03:14 AM 42.5733 -107.6450 311° West 261 300 17,800 -683 Descending Salt Lake Center
Sat 10:04:15 AM 42.6203 -107.7233 309° West 274 315 16,600 -1,475 Descending Salt Lake Center
Sat 10:05:16 AM 42.6753 -107.8206 308° West 287 330 14,800 -1,475 Descending Salt Lake Center
Sat 10:06:17 AM 42.7269 -107.9058 310° West 300 345 13,600 -1,377 Descending Salt Lake Center
Sat 10:07:18 AM 42.7808 -107.9853 313° West 300 345 12,000 -1,317 Descending Salt Lake Center
Sat 10:08:20 AM 42.8450 -108.0867 311° West 311 358 10,900 -1,024 Descending Salt Lake Center
Sat 10:09:21 AM 42.9003 -108.1661 314° West 308 354 9,900 -885 Descending Salt Lake Center
Sat 10:10:22 AM 42.9553 -108.2481 313° West 301 346 9,100 -541 Descending Salt Lake Center
Sat 10:11:23 AM 43.0008 -108.3094 315° West 272 313 8,800 -295 Descending Salt Lake Center

Login

Don't have an account? Register now (free) for customized features, flight alerts, and more!